Time;durP1;ratioP1;P1;durP2;ratioP2;P2;SDS_P1;SDS_P2;PMS_P1;PMS_P2;Temp;Humidity;BMP_temperature;BMP_pressure;BME280_temperature;BME280_humidity;BME280_pressure;Samples;Min_cycle;Max_cycle;Signal;HPM_P1;HPM_P2
2023/10/11 00:00:53;;;;;;;0.80;0.50;;;;;;;-143.84;40.18;45064.31;5112538;28;20453;-60
2023/10/11 00:03:32;;;;;;;0.80;0.40;;;;;;;-143.84;40.08;45079.53;5106943;28;20446;-60
2023/10/11 00:06:00;;;;;;;1.53;1.03;;;;;;;-143.84;40.23;45085.25;5107300;28;20445;-60
2023/10/11 00:08:29;;;;;;;0.80;0.47;;;;;;;-143.84;40.12;45058.59;5106938;28;20456;-60
2023/10/11 00:10:58;;;;;;;0.90;0.63;;;;;;;-143.84;40.37;45079.53;5107058;28;20457;-60
2023/10/11 00:13:28;;;;;;;1.20;1.10;;;;;;;-143.84;40.26;45094.78;5106351;28;21039;-60
2023/10/11 00:15:56;;;;;;;0.90;0.67;;;;;;;-143.84;40.67;45073.81;5106565;28;20452;-60
2023/10/11 00:18:26;;;;;;;0.80;0.50;;;;;;;-143.84;40.45;45075.72;5106593;28;20463;-60
2023/10/11 00:20:57;;;;;;;0.80;0.40;;;;;;;-143.84;40.45;45073.81;5106648;28;20454;-60
2023/10/11 00:23:25;;;;;;;0.80;0.50;;;;;;;-143.84;40.51;45077.63;5106367;28;20448;-60
2023/10/11 00:25:54;;;;;;;2.63;0.67;;;;;;;-143.84;40.76;45094.78;5106628;28;20537;-59
2023/10/11 00:28:24;;;;;;;0.80;0.40;;;;;;;-143.84;40.80;45090.97;5106772;28;20939;-60
2023/10/11 00:30:59;;;;;;;0.80;0.50;;;;;;;-143.84;40.92;45079.53;5106267;28;20612;-60
2023/10/11 00:33:26;;;;;;;0.80;0.50;;;;;;;-143.84;40.61;45071.91;5106300;28;20497;-60
2023/10/11 00:35:55;;;;;;;0.80;0.50;;;;;;;-143.84;40.37;45087.16;5106256;28;20546;-60
2023/10/11 00:38:27;;;;;;;1.30;0.70;;;;;;;-143.84;40.31;45075.72;5106489;28;20459;-60
2023/10/11 00:41:07;;;;;;;0.80;0.50;;;;;;;-143.84;40.43;45092.88;5106449;28;20450;-60
2023/10/11 00:43:35;;;;;;;0.80;0.40;;;;;;;-143.84;40.90;45068.13;5106526;28;20545;-60
2023/10/11 00:46:08;;;;;;;0.80;0.50;;;;;;;-143.84;40.78;45077.63;5106161;28;20524;-60
2023/10/11 00:48:37;;;;;;;0.90;0.60;;;;;;;-143.84;40.44;45094.78;5104908;28;20440;-60
2023/10/11 00:51:07;;;;;;;0.80;0.53;;;;;;;-143.84;41.02;45075.72;5106071;28;20457;-59
2023/10/11 00:53:35;;;;;;;0.80;0.70;;;;;;;-143.84;40.96;45064.31;5106074;28;20475;-60
2023/10/11 00:56:06;;;;;;;0.80;0.50;;;;;;;-143.84;41.11;45066.22;5106493;28;20505;-60
2023/10/11 00:58:33;;;;;;;0.80;0.50;;;;;;;-143.84;41.25;45090.97;5106172;28;20455;-60
2023/10/11 01:01:03;;;;;;;1.87;1.37;;;;;;;-143.84;41.17;45104.28;5106171;28;20445;-59
2023/10/11 01:03:33;;;;;;;0.80;0.40;;;;;;;-143.84;41.19;45075.72;5105787;28;20482;-60
2023/10/11 01:06:02;;;;;;;0.80;0.50;;;;;;;-143.84;41.18;45045.25;5105799;28;20457;-59
2023/10/11 01:08:38;;;;;;;0.80;0.40;;;;;;;-143.84;41.57;45087.16;5105699;28;20503;-60
2023/10/11 01:11:07;;;;;;;0.80;0.47;;;;;;;-143.84;41.55;45064.31;5104705;28;20448;-60
2023/10/11 01:13:34;;;;;;;0.80;0.40;;;;;;;-143.84;41.44;45064.31;5105715;28;20470;-60
2023/10/11 01:16:05;;;;;;;0.80;0.50;;;;;;;-143.84;41.93;45083.34;5103637;28;20479;-60
2023/10/11 01:18:34;;;;;;;0.90;0.70;;;;;;;-143.84;41.62;45089.06;5105914;28;20453;-59
2023/10/11 01:21:04;;;;;;;0.80;0.40;;;;;;;-143.84;42.08;45066.22;5105850;28;20564;-59
2023/10/11 01:23:34;;;;;;;0.90;0.60;;;;;;;-143.84;41.84;45081.44;5105749;28;20453;-60
2023/10/11 01:26:07;;;;;;;0.80;0.50;;;;;;;-143.84;41.79;45049.06;5105587;28;20446;-60
2023/10/11 01:28:35;;;;;;;1.47;0.47;;;;;;;-143.84;42.15;45079.53;5105525;28;20444;-60
2023/10/11 01:31:08;;;;;;;0.80;0.40;;;;;;;-143.84;42.31;45073.81;5105780;28;20544;-60
2023/10/11 01:33:36;;;;;;;1.00;0.50;;;;;;;-143.84;41.91;45089.06;5104746;28;20483;-60
2023/10/11 01:36:06;;;;;;;1.33;1.03;;;;;;;-143.84;42.20;45071.91;5105492;28;20449;-59
2023/10/11 01:38:45;;;;;;;0.80;0.57;;;;;;;-143.84;42.11;45085.25;5105400;28;20452;-59
2023/10/11 01:41:14;;;;;;;0.80;0.50;;;;;;;-143.84;42.17;45090.97;5103905;28;20440;-60
2023/10/11 01:43:42;;;;;;;0.80;0.40;;;;;;;-143.84;41.83;45052.88;5104714;28;20985;-60
2023/10/11 01:46:09;;;;;;;0.80;0.53;;;;;;;-143.84;42.13;45077.63;5104905;28;20451;-59
2023/10/11 01:48:36;;;;;;;0.80;0.50;;;;;;;-143.84;41.60;45079.53;5103412;28;20451;-60
2023/10/11 01:51:05;;;;;;;1.20;1.10;;;;;;;-143.84;41.74;45071.91;5105126;28;20494;-60
2023/10/11 01:53:35;;;;;;;1.20;0.57;;;;;;;-143.84;42.13;45100.47;5105426;28;20484;-60
2023/10/11 01:56:03;;;;;;;0.80;0.50;;;;;;;-143.84;42.11;45060.50;5105056;28;20454;-60
2023/10/11 01:58:30;;;;;;;0.80;0.50;;;;;;;-143.84;42.30;45085.25;5104325;28;20565;-60
2023/10/11 02:00:57;;;;;;;0.80;0.40;;;;;;;-143.84;42.25;45068.13;5103746;28;20452;-60
2023/10/11 02:03:25;;;;;;;1.10;0.90;;;;;;;-143.84;42.83;45081.44;5103386;28;20449;-60
2023/10/11 02:05:52;;;;;;;0.80;0.50;;;;;;;-143.84;42.86;45073.81;5103625;28;21878;-59
2023/10/11 02:08:19;;;;;;;0.83;0.53;;;;;;;-143.84;42.68;45075.72;5103376;28;20445;-60
2023/10/11 02:10:49;;;;;;;0.80;0.50;;;;;;;-143.84;43.07;45100.47;5103467;28;20517;-60
2023/10/11 02:13:17;;;;;;;0.80;0.60;;;;;;;-143.84;42.93;45083.34;5103091;28;20475;-60
2023/10/11 02:15:47;;;;;;;1.13;0.80;;;;;;;-143.84;43.01;45083.34;5102347;28;20437;-59
2023/10/11 02:18:14;;;;;;;0.90;0.70;;;;;;;-143.84;43.20;45073.81;5104197;28;20981;-60
2023/10/11 02:20:45;;;;;;;0.80;0.60;;;;;;;-143.84;43.24;45104.28;5104426;28;20454;-60
2023/10/11 02:23:12;;;;;;;0.80;0.50;;;;;;;-143.84;43.33;45064.31;5104205;28;20458;-60
2023/10/11 02:25:41;;;;;;;0.80;0.50;;;;;;;-143.84;43.28;45085.25;5104236;28;20435;-59
2023/10/11 02:28:10;;;;;;;0.80;0.60;;;;;;;-143.84;43.33;45092.88;5102592;28;20443;-60
2023/10/11 02:30:41;;;;;;;0.90;0.60;;;;;;;-143.84;43.21;45089.06;5102370;28;20516;-59
2023/10/11 02:33:11;;;;;;;0.87;0.63;;;;;;;-143.84;43.37;45071.91;5102448;28;21045;-60
2023/10/11 02:35:52;;;;;;;0.80;0.40;;;;;;;-143.84;43.76;45096.66;5103422;28;20443;-60
2023/10/11 02:38:23;;;;;;;1.23;1.13;;;;;;;-143.84;43.67;45087.16;5103915;28;20439;-60
2023/10/11 02:40:55;;;;;;;0.90;0.70;;;;;;;-143.84;43.88;45079.53;5103991;28;20443;-60
2023/10/11 02:43:26;;;;;;;1.20;0.63;;;;;;;-143.84;44.09;45110.00;5101917;28;20485;-60
2023/10/11 02:45:53;;;;;;;2.73;1.23;;;;;;;-143.84;44.04;45092.88;5103917;28;20453;-60
2023/10/11 02:48:21;;;;;;;1.00;0.60;;;;;;;-143.84;44.04;45083.34;5103912;28;20453;-62
2023/10/11 02:50:49;;;;;;;0.90;0.77;;;;;;;-143.84;44.01;45110.00;5103994;28;20533;-63
2023/10/11 02:53:22;;;;;;;0.90;0.70;;;;;;;-143.84;44.20;45089.06;5103026;28;20475;-62
2023/10/11 02:55:58;;;;;;;0.80;0.60;;;;;;;-143.84;44.07;45068.13;5103807;28;20431;-62
2023/10/11 02:58:29;;;;;;;0.80;0.60;;;;;;;-143.84;44.12;45079.53;5103324;28;20470;-62
2023/10/11 03:00:58;;;;;;;1.20;0.60;;;;;;;-143.84;44.37;45090.97;5103939;28;20472;-62
2023/10/11 03:03:27;;;;;;;1.37;0.80;;;;;;;-143.84;44.75;45087.16;5104096;28;20566;-62
2023/10/11 03:05:56;;;;;;;1.67;0.70;;;;;;;-143.84;44.89;45071.91;5103726;28;20450;-62
2023/10/11 03:08:26;;;;;;;0.80;0.43;;;;;;;-143.84;44.60;45081.44;5103944;28;20440;-62
2023/10/11 03:10:54;;;;;;;0.80;0.47;;;;;;;-143.84;44.89;45083.34;5103793;28;21047;-62
2023/10/11 03:13:29;;;;;;;1.83;1.00;;;;;;;-143.84;44.64;45081.44;5103714;28;21435;-62
2023/10/11 03:15:59;;;;;;;0.80;0.60;;;;;;;-143.84;44.77;45087.16;5103714;28;21028;-62
2023/10/11 03:18:31;;;;;;;0.80;0.50;;;;;;;-143.84;44.80;45079.53;5103889;28;20893;-62
2023/10/11 03:21:16;;;;;;;0.80;0.50;;;;;;;-143.84;45.28;45083.34;5103997;28;20953;-62
2023/10/11 03:23:44;;;;;;;0.80;0.50;;;;;;;-143.84;45.09;45146.19;5103775;28;20437;-62
2023/10/11 03:26:17;;;;;;;0.80;0.40;;;;;;;-143.84;45.47;45090.97;5102764;28;20443;-62
2023/10/11 03:28:45;;;;;;;0.80;0.50;;;;;;;-143.84;45.23;45075.72;5105902;28;20451;-62
2023/10/11 03:31:14;;;;;;;0.80;0.50;;;;;;;-143.84;44.80;45085.25;5107758;28;21298;-62
2023/10/11 03:33:42;;;;;;;1.20;0.70;;;;;;;-143.84;44.93;45075.72;5106475;28;20605;-62
2023/10/11 03:36:20;;;;;;;0.80;0.40;;;;;;;-143.84;45.36;45096.66;5106201;28;20440;-62
2023/10/11 03:38:51;;;;;;;0.87;0.60;;;;;;;-143.84;45.55;45094.78;5106885;28;20480;-62
2023/10/11 03:41:25;;;;;;;1.23;0.80;;;;;;;-143.84;45.89;45094.78;5106988;28;20544;-62
2023/10/11 03:44:00;;;;;;;0.90;0.60;;;;;;;-143.84;45.98;45090.97;5106976;28;20459;-62
2023/10/11 03:46:33;;;;;;;0.80;0.40;;;;;;;-143.84;46.04;45079.53;5107346;28;20470;-61
2023/10/11 03:49:32;;;;;;;0.80;0.60;;;;;;;-143.84;46.00;45102.38;5107442;28;20872;-62
2023/10/11 03:51:51;;;;;;;1.83;0.80;;;;;;;-143.84;45.75;45104.28;5107046;28;20448;-62
2023/10/11 03:54:22;;;;;;;1.10;0.87;;;;;;;-143.84;46.63;45106.19;5106588;28;20483;-62
2023/10/11 03:56:53;;;;;;;0.80;0.40;;;;;;;-143.84;46.40;45071.91;5107183;28;21220;-62
2023/10/11 03:59:20;;;;;;;0.90;0.80;;;;;;;-143.84;46.71;45090.97;5106694;28;21083;-62
2023/10/11 04:01:49;;;;;;;0.80;0.67;;;;;;;-143.84;46.66;45079.53;5107254;28;20470;-62
2023/10/11 04:04:17;;;;;;;0.80;0.50;;;;;;;-143.84;46.96;45098.56;5106645;28;20968;-62
2023/10/11 04:06:51;;;;;;;0.80;0.50;;;;;;;-143.84;46.99;45079.53;5096504;28;20471;-62
2023/10/11 04:09:32;;;;;;;0.80;0.57;;;;;;;-143.84;47.02;45127.13;5106442;28;21631;-62
2023/10/11 04:12:00;;;;;;;0.80;0.50;;;;;;;-143.84;47.31;45098.56;5106451;28;21165;-62
2023/10/11 04:14:39;;;;;;;5.70;1.33;;;;;;;-143.84;47.38;45096.66;5106677;28;20483;-62
2023/10/11 04:17:10;;;;;;;1.00;0.77;;;;;;;-143.84;47.75;45098.56;5106986;28;20531;-62
2023/10/11 04:19:40;;;;;;;0.80;0.50;;;;;;;-143.84;48.06;45106.19;5106925;28;20455;-62
2023/10/11 04:22:16;;;;;;;0.80;0.50;;;;;;;-143.84;47.74;45085.25;5106693;28;20447;-62
2023/10/11 04:24:45;;;;;;;0.80;0.50;;;;;;;-143.84;47.88;45102.38;5105406;28;20943;-62
2023/10/11 04:29:57;;;;;;;0.80;0.60;;;;;;;-143.84;48.11;45094.78;5106757;28;20437;-61
2023/10/11 04:35:20;;;;;;;1.10;0.90;;;;;;;-143.84;48.21;45096.66;5105997;28;20472;-62
2023/10/11 04:37:54;;;;;;;0.80;0.50;;;;;;;-143.84;48.11;45098.56;5104649;28;20447;-62
2023/10/11 04:40:35;;;;;;;1.00;0.83;;;;;;;-143.84;47.85;45090.97;5106147;28;20451;-62
2023/10/11 04:43:06;;;;;;;0.80;0.40;;;;;;;-143.84;48.15;45079.53;5105978;28;20600;-62
2023/10/11 04:45:43;;;;;;;1.40;0.70;;;;;;;-143.84;48.39;45094.78;5106279;28;20558;-62
2023/10/11 04:48:15;;;;;;;0.80;0.50;;;;;;;-143.84;48.69;45108.09;5105612;28;20439;-62
2023/10/11 04:50:47;;;;;;;0.90;0.60;;;;;;;-143.84;48.60;45089.06;5103901;28;20529;-62
2023/10/11 04:53:18;;;;;;;1.43;0.97;;;;;;;-143.84;48.38;45089.06;5105272;28;20450;-62
2023/10/11 04:55:58;;;;;;;2.47;1.40;;;;;;;-143.84;48.66;45090.97;5103845;28;20458;-62
2023/10/11 04:58:42;;;;;;;0.80;0.50;;;;;;;-143.84;48.86;45117.63;5105717;28;21137;-62
2023/10/11 05:01:11;;;;;;;0.80;0.43;;;;;;;-143.84;48.62;45087.16;5104663;28;20444;-62
2023/10/11 05:03:39;;;;;;;0.87;0.60;;;;;;;-143.84;49.08;45087.16;5106016;28;20443;-62
2023/10/11 05:06:15;;;;;;;1.10;0.77;;;;;;;-143.84;48.76;45087.16;5105316;28;21048;-62
2023/10/11 05:08:54;;;;;;;0.80;0.43;;;;;;;-143.84;48.77;45085.25;5104478;28;20843;-62
2023/10/11 05:11:32;;;;;;;0.80;0.60;;;;;;;-143.84;48.79;45102.38;5103924;28;20455;-62
2023/10/11 05:14:10;;;;;;;0.90;0.70;;;;;;;-143.84;48.63;45094.78;5105593;28;21079;-62
2023/10/11 05:16:44;;;;;;;0.87;0.63;;;;;;;-143.84;48.23;45079.53;5105959;28;20443;-62
2023/10/11 05:19:20;;;;;;;13.53;1.47;;;;;;;-143.84;48.42;45083.34;5104857;28;20557;-62
2023/10/11 05:21:52;;;;;;;0.90;0.70;;;;;;;-143.84;47.73;45073.81;5097640;28;20451;-62
2023/10/11 05:24:33;;;;;;;1.27;0.80;;;;;;;-143.84;46.85;45077.63;5105320;28;20463;-62
2023/10/11 05:27:35;;;;;;;1.27;0.67;;;;;;;-143.84;45.72;45066.22;5105371;28;20451;-62
2023/10/11 05:30:12;;;;;;;2.60;0.57;;;;;;;-143.84;44.89;45068.13;5105304;28;20442;-62
2023/10/11 05:32:50;;;;;;;0.80;0.50;;;;;;;-143.84;43.90;45071.91;5104060;28;20457;-62
2023/10/11 05:35:53;;;;;;;1.37;0.90;;;;;;;-143.84;42.90;45068.13;5104821;28;20500;-62
2023/10/11 05:52:13;;;;;;;0.90;0.50;;;;;;;-143.84;39.20;45012.88;5104823;28;20477;-62
2023/10/11 05:54:41;;;;;;;1.10;0.67;;;;;;;-143.84;38.63;45033.84;5102705;28;20939;-62
2023/10/11 05:57:08;;;;;;;0.90;0.53;;;;;;;-143.84;38.61;45028.13;5103670;28;20446;-62
2023/10/11 05:59:37;;;;;;;1.00;0.90;;;;;;;-143.84;37.72;45030.03;5103725;28;20435;-62
2023/10/11 06:02:07;;;;;;;0.80;0.40;;;;;;;-143.84;37.63;45049.06;5103720;28;21175;-62
2023/10/11 06:04:39;;;;;;;1.10;0.50;;;;;;;-143.84;37.36;45028.13;5103923;28;20447;-63
2023/10/11 06:07:06;;;;;;;0.90;0.70;;;;;;;-143.84;36.66;45026.22;5104110;28;20457;-63
2023/10/11 06:09:43;;;;;;;1.00;0.60;;;;;;;-143.84;37.15;45007.19;5104357;28;21175;-62
2023/10/11 06:12:22;;;;;;;0.83;0.57;;;;;;;-143.84;36.89;45022.41;5104876;28;20921;-62
2023/10/11 06:14:50;;;;;;;1.00;0.77;;;;;;;-143.84;36.31;45024.31;5104546;28;20530;-63
2023/10/11 06:17:21;;;;;;;1.00;0.60;;;;;;;-143.84;36.67;44990.03;5104331;28;20534;-62
2023/10/11 06:19:53;;;;;;;1.07;0.93;;;;;;;-143.84;36.05;45005.28;5104661;28;20442;-62
2023/10/11 06:22:21;;;;;;;0.80;0.40;;;;;;;-143.84;35.48;45001.47;5104774;28;20470;-63
2023/10/11 06:24:50;;;;;;;0.80;0.40;;;;;;;-143.84;35.56;45014.78;5104603;28;20447;-63
2023/10/11 06:30:09;;;;;;;0.90;0.53;;;;;;;-143.84;34.75;45007.19;5104720;28;20431;-63
2023/10/11 06:32:36;;;;;;;0.90;0.70;;;;;;;-143.84;34.85;45016.69;5104789;28;20485;-60
2023/10/11 06:35:05;;;;;;;0.80;0.50;;;;;;;-143.84;34.91;44984.31;5104546;28;20486;-60
2023/10/11 06:37:35;;;;;;;1.20;0.70;;;;;;;-143.84;35.10;45005.28;5104505;28;20998;-60
2023/10/11 06:40:14;;;;;;;0.80;0.40;;;;;;;-143.84;34.73;45003.38;5104544;28;20507;-60
2023/10/11 06:42:42;;;;;;;1.00;0.80;;;;;;;-143.84;34.59;45001.47;5102290;28;20571;-60
2023/10/11 06:45:16;;;;;;;0.83;0.40;;;;;;;-143.84;34.61;45007.19;5104321;28;20442;-60
2023/10/11 06:47:47;;;;;;;0.80;0.50;;;;;;;-143.84;34.28;44990.03;5102875;28;20478;-60
2023/10/11 06:50:14;;;;;;;1.23;0.57;;;;;;;-143.84;34.21;45009.09;5104171;28;20443;-60
2023/10/11 06:52:44;;;;;;;0.90;0.67;;;;;;;-143.84;33.88;44991.94;5104069;28;20430;-60
2023/10/11 06:55:18;;;;;;;1.30;0.60;;;;;;;-143.84;33.93;45009.09;5104214;28;20802;-60
2023/10/11 06:57:50;;;;;;;0.90;0.50;;;;;;;-143.84;33.83;44982.41;5102538;28;20967;-60
2023/10/11 07:00:24;;;;;;;1.00;0.57;;;;;;;-143.84;33.88;44993.84;5102942;28;20443;-60
2023/10/11 07:02:55;;;;;;;0.80;0.40;;;;;;;-143.84;33.86;44997.66;5103375;28;20494;-60
2023/10/11 07:05:25;;;;;;;1.20;0.73;;;;;;;-143.84;33.62;44993.84;5103985;28;20977;-60
2023/10/11 07:07:53;;;;;;;0.97;0.60;;;;;;;-143.84;33.04;45007.19;5104251;28;21639;-60
2023/10/11 07:13:05;;;;;;;0.90;0.50;;;;;;;-143.84;33.14;44993.84;5103738;28;20466;-60
2023/10/11 07:15:40;;;;;;;1.00;0.50;;;;;;;-143.84;32.53;44997.66;5103722;28;20528;-60
2023/10/11 07:18:10;;;;;;;0.80;0.40;;;;;;;-143.84;32.53;44999.56;5103659;28;20457;-60
2023/10/11 07:20:49;;;;;;;0.80;0.60;;;;;;;-143.84;32.46;44999.56;5103589;28;20996;-60
2023/10/11 07:23:19;;;;;;;0.90;0.50;;;;;;;-143.84;33.23;44993.84;5103109;28;20435;-60
2023/10/11 07:25:59;;;;;;;0.80;0.40;;;;;;;-143.84;32.58;44980.53;5102134;28;20457;-60
2023/10/11 07:28:35;;;;;;;0.90;0.50;;;;;;;-143.84;32.70;44990.03;5103302;28;20512;-61
2023/10/11 07:31:04;;;;;;;0.90;0.50;;;;;;;-143.84;33.29;44974.81;5103372;28;20458;-60
2023/10/11 07:33:31;;;;;;;0.80;0.40;;;;;;;-143.84;33.93;44993.84;5103907;28;20435;-60
2023/10/11 07:35:59;;;;;;;0.93;0.60;;;;;;;-143.84;32.69;44978.63;5103450;28;20482;-61
2023/10/11 07:38:34;;;;;;;0.80;0.40;;;;;;;-143.84;33.20;44999.56;5103364;28;20488;-60
2023/10/11 07:41:17;;;;;;;1.00;0.80;;;;;;;-143.84;33.08;45001.47;5104012;28;20474;-60
2023/10/11 07:43:45;;;;;;;1.00;0.60;;;;;;;-143.84;32.87;44984.31;5101679;28;20501;-60
2023/10/11 07:46:12;;;;;;;1.17;0.70;;;;;;;-143.84;33.03;45007.19;5103846;28;20439;-60
2023/10/11 07:48:39;;;;;;;1.20;0.90;;;;;;;-143.84;33.47;44980.53;5103585;28;20435;-60
2023/10/11 07:51:09;;;;;;;0.90;0.60;;;;;;;-143.84;32.94;44965.28;5103256;28;20450;-60
2023/10/11 07:53:40;;;;;;;1.00;0.60;;;;;;;-143.84;33.55;44972.91;5103801;28;20804;-61
2023/10/11 07:56:08;;;;;;;1.00;0.80;;;;;;;-143.84;33.71;44982.41;5103768;28;20603;-60
2023/10/11 07:58:36;;;;;;;1.20;0.50;;;;;;;-143.84;33.71;44995.75;5103716;28;20537;-60
2023/10/11 08:01:15;;;;;;;0.90;0.50;;;;;;;-143.84;33.54;45005.28;5103885;28;20539;-60
2023/10/11 08:03:44;;;;;;;1.17;0.70;;;;;;;-143.84;33.35;44991.94;5103525;28;20525;-61
2023/10/11 08:06:15;;;;;;;1.77;0.63;;;;;;;-143.84;33.57;44984.31;5103280;28;20451;-60
2023/10/11 08:08:43;;;;;;;0.80;0.40;;;;;;;-143.84;33.53;45001.47;5102898;28;20511;-60
2023/10/11 08:11:20;;;;;;;0.80;0.40;;;;;;;-143.84;34.22;44980.53;5103207;28;20869;-60
2023/10/11 08:13:49;;;;;;;0.90;0.50;;;;;;;-143.84;33.17;44993.84;5104336;28;20841;-60
2023/10/11 08:16:19;;;;;;;1.00;0.50;;;;;;;-143.84;32.92;44974.81;5105018;28;20478;-60
2023/10/11 08:18:51;;;;;;;0.90;0.40;;;;;;;-143.84;33.90;44995.75;5106960;28;20435;-60
2023/10/11 08:21:19;;;;;;;0.90;0.60;;;;;;;-143.84;32.67;44967.19;5105521;28;20921;-60
2023/10/11 08:23:50;;;;;;;1.10;0.50;;;;;;;-143.84;33.04;44982.41;5106948;28;20921;-60
2023/10/11 08:26:21;;;;;;;2.07;0.60;;;;;;;-143.84;33.23;44961.47;5105437;28;20543;-60
2023/10/11 08:28:49;;;;;;;0.90;0.40;;;;;;;-143.84;33.55;44961.47;5105809;28;20526;-61
2023/10/11 08:31:35;;;;;;;0.90;0.50;;;;;;;-143.84;32.60;44959.56;5106360;28;20814;-61
2023/10/11 08:34:03;;;;;;;1.00;0.60;;;;;;;-143.84;32.71;44984.31;5106764;28;20832;-60
2023/10/11 08:36:33;;;;;;;0.90;0.50;;;;;;;-143.84;32.66;44969.09;5106440;28;20435;-61
2023/10/11 08:39:05;;;;;;;0.80;0.50;;;;;;;-143.84;32.34;44980.53;5106480;28;20440;-60
2023/10/11 08:41:34;;;;;;;1.00;0.90;;;;;;;-143.84;32.63;44955.75;5106731;28;20474;-60
2023/10/11 08:44:08;;;;;;;0.90;0.60;;;;;;;-143.84;32.34;44988.13;5106567;28;20463;-60
2023/10/11 08:46:40;;;;;;;0.80;0.40;;;;;;;-143.84;32.98;44976.72;5106351;28;20585;-60
2023/10/11 08:49:07;;;;;;;1.20;0.83;;;;;;;-143.84;32.79;44963.38;5106406;28;21024;-60
2023/10/11 08:51:41;;;;;;;2.07;0.80;;;;;;;-143.84;32.54;44974.81;5106531;28;20535;-60
2023/10/11 08:54:11;;;;;;;0.80;0.40;;;;;;;-143.84;32.75;44953.88;5106619;28;20500;-60
2023/10/11 08:56:40;;;;;;;0.90;0.60;;;;;;;-143.84;32.46;44972.91;5106693;28;20586;-60
2023/10/11 08:59:14;;;;;;;0.80;0.40;;;;;;;-143.84;32.89;44984.31;5106336;28;20447;-60
2023/10/11 09:01:45;;;;;;;1.10;0.60;;;;;;;-143.84;32.53;44974.81;5106264;28;20507;-61
2023/10/11 09:04:14;;;;;;;0.80;0.40;;;;;;;-143.84;32.43;44957.66;5106195;28;20488;-60
2023/10/11 09:06:44;;;;;;;0.90;0.53;;;;;;;-143.84;32.55;44953.88;5106150;28;20439;-60
2023/10/11 09:09:32;;;;;;;0.80;0.50;;;;;;;-143.84;32.86;44927.19;5105928;28;20458;-60
2023/10/11 09:12:20;;;;;;;1.10;0.63;;;;;;;-143.84;33.41;44959.56;5106110;28;20436;-60
2023/10/11 09:14:58;;;;;;;1.20;0.80;;;;;;;-143.84;32.83;44961.47;5104463;28;20895;-60
2023/10/11 09:17:26;;;;;;;1.23;0.57;;;;;;;-143.84;32.54;44965.28;5105149;28;20435;-60
2023/10/11 09:19:56;;;;;;;0.90;0.50;;;;;;;-143.84;33.19;44961.47;5105463;28;20439;-60
2023/10/11 09:22:24;;;;;;;0.80;0.40;;;;;;;-143.84;32.98;44969.09;5105512;28;20443;-60
2023/10/11 09:25:04;;;;;;;0.90;0.50;;;;;;;-143.84;33.49;44974.81;5105127;28;20989;-60
2023/10/11 09:27:48;;;;;;;1.20;0.90;;;;;;;-143.84;33.11;44957.66;5105983;28;20522;-60
2023/10/11 09:30:19;;;;;;;1.40;0.93;;;;;;;-143.84;32.93;44969.09;5105274;28;20451;-60
2023/10/11 09:32:49;;;;;;;0.90;0.60;;;;;;;-143.84;32.84;44971.00;5104087;28;20537;-60
2023/10/11 09:35:31;;;;;;;0.90;0.60;;;;;;;-143.84;32.85;44986.22;5103671;28;20466;-60
2023/10/11 09:37:59;;;;;;;0.90;0.60;;;;;;;-143.84;33.29;44993.84;5105313;28;20470;-60
2023/10/11 09:40:28;;;;;;;0.97;0.70;;;;;;;-143.84;33.25;44974.81;5104829;28;20454;-60
2023/10/11 09:43:00;;;;;;;1.20;0.80;;;;;;;-143.84;34.25;44978.63;5105053;28;20494;-60
2023/10/11 09:45:41;;;;;;;0.90;0.40;;;;;;;-143.84;32.93;44959.56;5105046;28;20455;-60
2023/10/11 09:48:12;;;;;;;0.80;0.40;;;;;;;-143.84;33.63;44982.41;5105512;28;20439;-60
2023/10/11 09:50:41;;;;;;;0.90;0.60;;;;;;;-143.84;33.61;44953.88;5105657;28;20532;-60
2023/10/11 09:53:11;;;;;;;0.80;0.40;;;;;;;-143.84;33.23;45009.09;5105271;28;20443;-60
2023/10/11 09:55:48;;;;;;;0.80;0.40;;;;;;;-143.84;33.63;45009.09;5104954;28;21306;-60
2023/10/11 09:58:29;;;;;;;1.00;0.80;;;;;;;-143.84;32.52;44995.75;5103295;28;20443;-60
2023/10/11 10:01:07;;;;;;;0.90;0.50;;;;;;;-143.84;32.53;44965.28;5104231;28;21752;-60
2023/10/11 10:03:38;;;;;;;1.00;0.67;;;;;;;-143.84;33.32;45007.19;5105162;28;20507;-60
2023/10/11 10:06:18;;;;;;;0.90;0.50;;;;;;;-143.84;33.11;44974.81;5104857;28;20541;-60
2023/10/11 10:08:50;;;;;;;0.80;0.40;;;;;;;-143.84;33.05;44967.19;5104252;28;20443;-60
2023/10/11 10:11:19;;;;;;;0.80;0.40;;;;;;;-143.84;33.20;44997.66;5101646;28;20971;-60
2023/10/11 10:14:24;;;;;;;0.90;0.60;;;;;;;-143.84;33.27;44982.41;5101665;28;20453;-60
2023/10/11 10:17:12;;;;;;;1.00;0.60;;;;;;;-143.84;33.30;44965.28;5102346;28;20487;-60
2023/10/11 10:19:42;;;;;;;0.80;0.50;;;;;;;-143.84;33.19;44978.63;5103594;28;20451;-60
2023/10/11 10:22:14;;;;;;;0.80;0.40;;;;;;;-143.84;33.60;44972.91;5103543;28;20960;-60
2023/10/11 10:24:43;;;;;;;0.90;0.57;;;;;;;-143.84;33.41;44972.91;5103556;28;20446;-60
2023/10/11 10:27:40;;;;;;;1.10;0.53;;;;;;;-143.84;34.44;44955.75;5103890;28;20451;-60
2023/10/11 10:30:16;;;;;;;0.80;0.40;;;;;;;-143.84;33.93;44969.09;5104174;28;20455;-60
2023/10/11 10:33:18;;;;;;;0.80;0.40;;;;;;;-143.84;33.85;44972.91;5104615;28;20454;-60
2023/10/11 10:35:45;;;;;;;0.90;0.50;;;;;;;-143.84;33.37;44942.44;5103621;28;20466;-60
2023/10/11 10:38:12;;;;;;;0.80;0.40;;;;;;;-143.84;33.30;44988.13;5104860;28;20466;-60
2023/10/11 10:40:42;;;;;;;1.20;0.80;;;;;;;-143.84;33.36;44999.56;5104392;28;21340;-60
2023/10/11 10:43:24;;;;;;;1.00;0.70;;;;;;;-143.84;33.77;44993.84;5104119;28;20490;-60
2023/10/11 10:45:59;;;;;;;0.80;0.40;;;;;;;-143.84;33.37;44986.22;5103987;28;20446;-60
2023/10/11 10:48:30;;;;;;;1.07;0.60;;;;;;;-143.84;33.22;44984.31;5103522;28;20454;-60
2023/10/11 10:51:04;;;;;;;0.80;0.50;;;;;;;-143.84;33.49;44961.47;5103998;28;20455;-60
2023/10/11 10:53:39;;;;;;;0.90;0.60;;;;;;;-143.84;33.06;44959.56;5104181;28;20467;-60
2023/10/11 10:56:19;;;;;;;0.90;0.63;;;;;;;-143.84;32.46;44982.41;5104053;28;20479;-60
2023/10/11 10:58:46;;;;;;;0.80;0.40;;;;;;;-143.84;31.96;45014.78;5103426;28;20467;-60
2023/10/11 11:01:21;;;;;;;0.83;0.50;;;;;;;-143.84;32.70;44974.81;5103976;28;20439;-60
2023/10/11 11:03:56;;;;;;;0.80;0.50;;;;;;;-143.84;32.66;44984.31;5102254;28;20457;-60
2023/10/11 11:06:23;;;;;;;0.80;0.50;;;;;;;-143.84;33.01;44990.03;5102683;28;20443;-60
2023/10/11 11:08:49;;;;;;;4.00;1.27;;;;;;;-143.84;33.18;45005.28;5103991;28;20504;-60
2023/10/11 11:11:26;;;;;;;0.80;0.40;;;;;;;-143.84;33.89;44995.75;5104060;28;20454;-60
2023/10/11 11:13:54;;;;;;;0.80;0.40;;;;;;;-143.84;34.35;44991.94;5103082;28;20481;-60
2023/10/11 11:16:26;;;;;;;0.90;0.53;;;;;;;-143.84;34.01;44972.91;5103637;28;20471;-60
2023/10/11 11:18:52;;;;;;;1.23;0.77;;;;;;;-143.84;34.13;45001.47;5102556;28;20439;-60
2023/10/11 11:21:23;;;;;;;0.80;0.40;;;;;;;-143.84;34.20;44995.75;5104184;28;20431;-60
2023/10/11 11:23:50;;;;;;;0.80;0.40;;;;;;;-143.84;34.45;44974.81;5102514;28;20492;-60
2023/10/11 11:26:18;;;;;;;0.90;0.50;;;;;;;-143.84;34.66;44965.28;5101624;28;20443;-60
2023/10/11 11:28:45;;;;;;;0.90;0.63;;;;;;;-143.84;35.13;45007.19;5103925;28;20526;-60
2023/10/11 11:31:13;;;;;;;0.80;0.47;;;;;;;-143.84;34.82;44991.94;5103948;28;20451;-60
2023/10/11 11:34:05;;;;;;;0.93;0.57;;;;;;;-143.84;35.31;44997.66;5104085;28;20439;-59
2023/10/11 11:36:34;;;;;;;1.00;0.80;;;;;;;-143.84;34.80;44999.56;5103736;28;20466;-60
2023/10/11 11:41:45;;;;;;;1.00;0.50;;;;;;;-143.84;35.50;44976.72;5103455;28;20459;-60
2023/10/11 11:44:19;;;;;;;0.80;0.40;;;;;;;-143.84;35.14;44990.03;5103616;28;20451;-60
2023/10/11 11:46:50;;;;;;;1.00;0.60;;;;;;;-143.84;35.12;45016.69;5104539;28;20970;-60
2023/10/11 11:49:20;;;;;;;0.90;0.50;;;;;;;-143.84;35.25;45007.19;5108058;28;20431;-60
2023/10/11 11:51:52;;;;;;;1.27;1.17;;;;;;;-143.84;35.21;44990.03;5105688;28;20455;-60
2023/10/11 11:54:20;;;;;;;0.90;0.70;;;;;;;-143.84;35.50;44999.56;5106625;28;20846;-60
2023/10/11 11:56:47;;;;;;;0.90;0.70;;;;;;;-143.84;35.91;44986.22;5107192;28;20477;-60
2023/10/11 11:59:21;;;;;;;0.90;0.50;;;;;;;-143.84;35.93;45005.28;5107257;28;20431;-60
2023/10/11 12:01:53;;;;;;;3.13;0.90;;;;;;;-143.84;36.13;45007.19;5105460;28;20435;-60
2023/10/11 12:04:28;;;;;;;0.90;0.70;;;;;;;-143.84;36.07;44984.31;5106341;28;20457;-60
2023/10/11 12:06:57;;;;;;;0.80;0.40;;;;;;;-143.84;36.05;45010.97;5107259;28;20449;-60